createdAt,value
2022-09-29T00:00:38.338Z,99.90
2022-09-29T00:03:40.109Z,99.90
2022-09-29T00:06:41.756Z,99.90
2022-09-29T00:09:43.395Z,99.90
2022-09-29T00:12:45.173Z,99.90
2022-09-29T00:16:04.267Z,99.90
2022-09-29T00:19:06.109Z,99.90
2022-09-29T00:22:07.934Z,99.90
2022-09-29T00:25:09.603Z,99.90
2022-09-29T00:28:11.313Z,99.90
2022-09-29T00:31:13.059Z,99.90
2022-09-29T00:34:14.781Z,99.90
2022-09-29T00:37:16.883Z,99.90
2022-09-29T00:40:18.777Z,99.90
2022-09-29T00:43:45.273Z,99.90
2022-09-29T00:46:56.834Z,99.90
2022-09-29T00:50:12.288Z,99.90
2022-09-29T00:53:21.209Z,99.90
2022-09-29T00:56:23.799Z,99.90
2022-09-29T00:59:32.553Z,99.90
2022-09-29T01:02:37.644Z,99.90
2022-09-29T01:05:44.253Z,99.90
2022-09-29T01:08:53.149Z,99.90
2022-09-29T01:11:58.234Z,99.90
2022-09-29T01:15:00.646Z,99.90
2022-09-29T01:18:02.754Z,99.90
2022-09-29T01:21:23.030Z,99.90
2022-09-29T01:24:49.599Z,99.90
2022-09-29T01:28:28.752Z,99.90
2022-09-29T01:31:58.515Z,99.90
2022-09-29T01:35:28.572Z,99.90
2022-09-29T01:38:48.286Z,99.90
2022-09-29T01:42:12.803Z,99.90
2022-09-29T01:45:33.596Z,99.90
2022-09-29T01:48:42.257Z,99.90
2022-09-29T01:51:46.997Z,99.90
2022-09-29T01:55:00.290Z,99.90
2022-09-29T01:58:12.997Z,99.90
2022-09-29T02:01:18.657Z,99.90
2022-09-29T02:04:29.309Z,99.90
2022-09-29T02:07:41.001Z,99.90
2022-09-29T02:11:04.200Z,99.90
2022-09-29T02:14:12.754Z,99.90
2022-09-29T02:17:22.371Z,99.90
2022-09-29T02:20:24.476Z,99.90
2022-09-29T02:23:26.162Z,99.90
2022-09-29T02:26:35.960Z,99.90
2022-09-29T02:29:38.403Z,99.90
2022-09-29T02:32:40.600Z,99.90
2022-09-29T02:35:51.252Z,99.90
2022-09-29T02:39:00.293Z,99.90
2022-09-29T02:42:17.512Z,99.90
2022-09-29T02:45:38.162Z,99.90
2022-09-29T02:48:39.803Z,99.90
2022-09-29T02:52:16.126Z,99.90
2022-09-29T02:55:40.960Z,99.90
2022-09-29T02:58:51.363Z,99.90
2022-09-29T03:01:55.447Z,99.90
2022-09-29T03:04:57.575Z,99.90
2022-09-29T03:07:59.267Z,99.90
2022-09-29T03:11:01.313Z,99.90
2022-09-29T03:14:03.441Z,99.90
2022-09-29T03:17:05.089Z,99.90
2022-09-29T03:20:08.175Z,99.90
2022-09-29T03:23:09.801Z,99.90
2022-09-29T03:26:11.435Z,99.90
2022-09-29T03:29:13.061Z,99.90
2022-09-29T03:32:14.728Z,99.90
2022-09-29T03:35:16.637Z,99.90
2022-09-29T03:38:18.287Z,99.90
2022-09-29T03:41:19.945Z,99.90
2022-09-29T03:44:21.613Z,99.90
2022-09-29T03:47:23.329Z,99.90
2022-09-29T03:50:24.989Z,99.90
2022-09-29T03:53:26.975Z,99.90
2022-09-29T03:56:28.680Z,99.90
2022-09-29T03:59:30.328Z,99.90
2022-09-29T04:02:34.449Z,99.90
2022-09-29T04:05:38.391Z,99.90
2022-09-29T04:08:40.190Z,99.90
2022-09-29T04:11:41.845Z,99.90
2022-09-29T04:14:43.527Z,99.90
2022-09-29T04:17:45.161Z,99.90
2022-09-29T04:20:46.934Z,99.90
2022-09-29T04:23:49.798Z,99.90
2022-09-29T04:26:51.493Z,99.90
2022-09-29T04:29:53.111Z,99.90
2022-09-29T04:32:54.772Z,99.90
2022-09-29T04:35:57.180Z,99.90
2022-09-29T04:38:59.103Z,99.90
2022-09-29T04:42:00.782Z,99.90
2022-09-29T04:45:02.552Z,99.90
2022-09-29T04:48:04.557Z,99.90
2022-09-29T04:51:06.445Z,99.90
2022-09-29T04:54:08.073Z,99.90
2022-09-29T04:57:10.586Z,99.90
2022-09-29T05:00:13.167Z,99.90
2022-09-29T05:03:14.800Z,99.90
2022-09-29T05:06:17.256Z,99.90
2022-09-29T05:09:21.688Z,99.90
2022-09-29T05:12:26.275Z,99.90
2022-09-29T05:15:27.895Z,99.90
2022-09-29T05:18:30.468Z,99.90
2022-09-29T05:21:32.119Z,99.90
2022-09-29T05:24:33.860Z,99.90
2022-09-29T05:27:38.640Z,99.90
2022-09-29T05:30:40.547Z,99.90
2022-09-29T05:33:42.237Z,99.90
2022-09-29T05:36:44.246Z,99.90
2022-09-29T05:39:47.601Z,99.90
2022-09-29T05:42:49.494Z,99.90
2022-09-29T05:45:51.204Z,99.90
2022-09-29T05:48:53.351Z,99.90
2022-09-29T05:51:55.024Z,99.90
2022-09-29T05:54:56.634Z,99.90
2022-09-29T05:57:58.331Z,99.90
2022-09-29T06:01:00.106Z,99.90
2022-09-29T06:04:02.068Z,99.90
2022-09-29T06:07:04.612Z,99.90
2022-09-29T06:10:06.880Z,99.90
2022-09-29T06:13:08.811Z,99.90
2022-09-29T06:16:11.192Z,99.90
2022-09-29T06:19:13.773Z,99.90
2022-09-29T06:22:15.438Z,99.90
2022-09-29T06:25:17.264Z,99.90
2022-09-29T06:28:18.883Z,99.90
2022-09-29T06:31:23.340Z,99.90
2022-09-29T06:34:25.180Z,99.90
2022-09-29T06:37:36.217Z,99.90
2022-09-29T06:40:37.887Z,99.90
2022-09-29T06:43:39.628Z,99.90
2022-09-29T06:46:41.531Z,99.90
2022-09-29T06:49:51.905Z,99.90
2022-09-29T06:53:05.049Z,99.90
2022-09-29T06:56:08.896Z,99.90
2022-09-29T06:59:10.551Z,99.90
2022-09-29T07:02:12.290Z,99.90
2022-09-29T07:05:14.287Z,99.90
2022-09-29T07:08:15.930Z,99.90
2022-09-29T07:11:17.627Z,99.90
2022-09-29T07:14:22.772Z,99.90
2022-09-29T07:17:24.590Z,99.90
2022-09-29T07:20:27.421Z,99.90
2022-09-29T07:23:29.100Z,99.90
2022-09-29T07:26:30.847Z,99.90
2022-09-29T07:29:33.071Z,99.90
2022-09-29T07:32:34.759Z,99.90
2022-09-29T07:35:39.914Z,99.90
2022-09-29T07:38:42.394Z,99.90
2022-09-29T07:41:44.093Z,99.90
2022-09-29T07:44:50.120Z,99.90
2022-09-29T07:47:57.043Z,99.90
2022-09-29T07:51:16.458Z,99.90
2022-09-29T07:54:18.480Z,99.90
2022-09-29T07:57:20.141Z,99.90
2022-09-29T08:00:21.853Z,99.90
2022-09-29T08:03:25.717Z,99.90
2022-09-29T08:06:27.918Z,99.90
2022-09-29T08:09:38.870Z,99.90
2022-09-29T08:12:44.411Z,99.90
2022-09-29T08:15:46.326Z,99.90
2022-09-29T08:18:47.987Z,99.90
2022-09-29T08:21:49.815Z,99.90
2022-09-29T08:24:51.448Z,99.90
2022-09-29T08:27:55.823Z,99.90
2022-09-29T08:31:04.317Z,99.90
2022-09-29T08:34:07.133Z,99.90
2022-09-29T08:37:09.214Z,99.90
2022-09-29T08:40:12.144Z,99.90
2022-09-29T08:43:33.087Z,99.90
2022-09-29T08:46:42.762Z,99.90
2022-09-29T08:50:08.862Z,99.90
2022-09-29T08:53:26.793Z,99.90
2022-09-29T08:56:30.300Z,99.90
2022-09-29T08:59:32.581Z,99.90
2022-09-29T09:03:00.477Z,99.90
2022-09-29T09:06:16.936Z,99.90
2022-09-29T09:09:39.639Z,99.90
2022-09-29T09:13:05.841Z,99.90
2022-09-29T09:16:40.368Z,99.90
2022-09-29T09:19:55.235Z,99.90
2022-09-29T09:23:03.932Z,99.90
2022-09-29T09:26:05.748Z,99.90
2022-09-29T09:29:37.996Z,99.90
2022-09-29T09:32:47.781Z,99.90
2022-09-29T09:35:59.324Z,99.90
2022-09-29T09:39:15.352Z,99.90
2022-09-29T09:42:31.275Z,99.90
2022-09-29T09:45:37.898Z,99.90
2022-09-29T09:48:44.824Z,99.90
2022-09-29T09:52:17.969Z,99.90
2022-09-29T09:55:25.363Z,99.90
2022-09-29T09:58:54.587Z,99.90
2022-09-29T10:01:56.275Z,99.90
2022-09-29T10:04:58.243Z,99.90
2022-09-29T10:08:00.601Z,99.90
2022-09-29T10:11:02.323Z,99.90
2022-09-29T10:14:13.096Z,99.90
2022-09-29T10:17:18.380Z,99.90
2022-09-29T10:20:34.208Z,99.90
2022-09-29T10:23:36.456Z,99.90
2022-09-29T10:26:44.750Z,99.90
2022-09-29T10:29:52.423Z,99.90
2022-09-29T10:33:00.140Z,99.90
2022-09-29T10:36:11.026Z,99.90
2022-09-29T10:39:33.683Z,99.90
2022-09-29T10:42:37.081Z,99.90
2022-09-29T10:45:48.160Z,99.90
2022-09-29T10:49:13.575Z,99.90
2022-09-29T10:52:25.533Z,99.90
2022-09-29T10:55:33.447Z,99.90
2022-09-29T10:58:52.489Z,99.90
2022-09-29T11:02:01.452Z,99.90
2022-09-29T11:05:18.056Z,99.90
2022-09-29T11:08:25.640Z,99.90
2022-09-29T11:11:31.753Z,99.90
2022-09-29T11:14:36.236Z,99.90
2022-09-29T11:17:38.704Z,99.90
2022-09-29T11:20:40.733Z,99.90
2022-09-29T11:24:01.357Z,99.90
2022-09-29T11:27:40.337Z,99.90
2022-09-29T11:30:59.493Z,99.90
2022-09-29T11:34:29.515Z,99.90
2022-09-29T11:37:56.022Z,99.90
2022-09-29T11:41:19.483Z,99.90
2022-09-29T11:44:50.994Z,99.90
2022-09-29T11:48:27.217Z,99.90
2022-09-29T11:51:55.556Z,99.90
2022-09-29T11:55:27.800Z,99.90
2022-09-29T11:58:49.405Z,99.90
2022-09-29T12:02:06.216Z,99.90
2022-09-29T12:05:20.001Z,99.90
2022-09-29T12:08:53.965Z,99.90
2022-09-29T12:12:22.510Z,99.90
2022-09-29T12:15:42.091Z,99.90
2022-09-29T12:19:13.845Z,99.90
2022-09-29T12:22:19.385Z,99.90
2022-09-29T12:25:26.708Z,99.90
2022-09-29T12:28:36.650Z,99.90
2022-09-29T12:31:43.672Z,99.90
2022-09-29T12:34:59.480Z,99.90
2022-09-29T12:38:22.148Z,99.90
2022-09-29T12:41:29.243Z,99.90
2022-09-29T12:45:11.259Z,99.90
2022-09-29T12:48:34.277Z,99.90
2022-09-29T12:51:50.909Z,99.90
2022-09-29T12:54:57.676Z,99.90
2022-09-29T12:58:05.149Z,99.90
2022-09-29T13:01:20.189Z,99.90
2022-09-29T13:04:50.161Z,99.90
2022-09-29T13:08:23.212Z,99.90
2022-09-29T13:11:39.908Z,99.90
2022-09-29T13:15:03.652Z,99.90
2022-09-29T13:18:21.131Z,99.90
2022-09-29T13:21:35.392Z,99.80
2022-09-29T13:25:11.172Z,99.90
2022-09-29T13:28:42.375Z,99.90
2022-09-29T13:31:46.338Z,99.20
2022-09-29T13:34:58.359Z,97.00
2022-09-29T13:38:06.479Z,99.10
2022-09-29T13:41:17.843Z,99.80
2022-09-29T13:44:29.080Z,98.20
2022-09-29T13:47:34.724Z,88.30
2022-09-29T13:50:47.415Z,86.50
2022-09-29T13:54:27.747Z,89.40
2022-09-29T13:57:29.592Z,76.60
2022-09-29T14:00:32.085Z,73.00
2022-09-29T14:03:45.119Z,88.80
2022-09-29T14:06:47.948Z,90.20
2022-09-29T14:09:50.093Z,90.20
2022-09-29T14:13:12.921Z,91.20
2022-09-29T14:16:33.567Z,84.10
2022-09-29T14:20:15.145Z,86.00
2022-09-29T14:23:46.031Z,81.30
2022-09-29T14:26:51.665Z,81.00
2022-09-29T14:30:17.085Z,89.80
2022-09-29T14:33:34.103Z,81.10
2022-09-29T14:36:36.881Z,83.90
2022-09-29T14:39:39.897Z,75.50
2022-09-29T14:42:41.560Z,69.10
2022-09-29T14:46:51.721Z,65.70
2022-09-29T14:50:33.062Z,67.30
2022-09-29T14:53:58.359Z,73.40
2022-09-29T14:57:34.033Z,79.40
2022-09-29T15:00:46.677Z,79.40
2022-09-29T15:03:50.886Z,78.70
2022-09-29T15:06:52.786Z,81.20
2022-09-29T15:09:57.462Z,81.80
2022-09-29T15:13:29.758Z,83.90
2022-09-29T15:16:52.607Z,88.80
2022-09-29T15:20:21.180Z,87.10
2022-09-29T15:23:44.450Z,86.70
2022-09-29T15:26:48.901Z,80.30
2022-09-29T15:29:55.949Z,78.20
2022-09-29T15:33:18.788Z,75.20
2022-09-29T15:36:25.599Z,84.50
2022-09-29T15:39:33.277Z,90.90
2022-09-29T15:42:38.396Z,96.10
2022-09-29T15:45:40.032Z,99.90
2022-09-29T15:48:41.715Z,91.10
2022-09-29T15:51:56.884Z,97.60
2022-09-29T15:54:59.158Z,94.50
2022-09-29T15:58:02.956Z,94.80
2022-09-29T16:01:06.994Z,94.50
2022-09-29T16:04:09.123Z,99.90
2022-09-29T16:07:47.632Z,99.90
2022-09-29T16:10:54.941Z,99.90
2022-09-29T16:14:03.416Z,99.90
2022-09-29T16:17:08.846Z,99.90
2022-09-29T16:20:17.427Z,99.90
2022-09-29T16:23:25.825Z,99.90
2022-09-29T16:26:35.324Z,99.90
2022-09-29T16:29:37.482Z,99.90
2022-09-29T16:32:42.795Z,99.90
2022-09-29T16:35:53.680Z,99.90
2022-09-29T16:38:55.727Z,99.90
2022-09-29T16:41:59.837Z,99.90
2022-09-29T16:45:01.660Z,99.90
2022-09-29T16:48:03.454Z,99.90
2022-09-29T16:51:37.731Z,99.90
2022-09-29T16:54:42.671Z,99.90
2022-09-29T16:58:15.047Z,99.90
2022-09-29T17:01:16.803Z,99.90
2022-09-29T17:04:18.606Z,99.90
2022-09-29T17:07:22.923Z,99.90
2022-09-29T17:10:24.580Z,99.90
2022-09-29T17:13:32.184Z,99.90
2022-09-29T17:16:33.823Z,99.90
2022-09-29T17:19:35.497Z,99.90
2022-09-29T17:22:37.241Z,99.90
2022-09-29T17:25:41.804Z,99.90
2022-09-29T17:28:43.495Z,99.90
2022-09-29T17:31:45.169Z,99.90
2022-09-29T17:34:46.804Z,99.90
2022-09-29T17:37:48.468Z,99.90
2022-09-29T17:40:56.931Z,99.90
2022-09-29T17:43:58.580Z,99.90
2022-09-29T17:47:11.239Z,99.90
2022-09-29T17:50:30.927Z,99.90
2022-09-29T17:53:32.605Z,99.90
2022-09-29T17:56:39.998Z,99.90
2022-09-29T17:59:41.635Z,99.90
2022-09-29T18:02:44.324Z,99.90
2022-09-29T18:05:48.461Z,99.90
2022-09-29T18:08:53.774Z,99.90
2022-09-29T18:11:55.817Z,99.90
2022-09-29T18:14:57.435Z,99.90
2022-09-29T18:18:02.060Z,99.90
2022-09-29T18:21:06.042Z,99.90
2022-09-29T18:24:09.998Z,99.90
2022-09-29T18:27:14.662Z,99.90
2022-09-29T18:30:20.234Z,99.90
2022-09-29T18:33:21.900Z,99.90
2022-09-29T18:36:23.549Z,99.90
2022-09-29T18:39:25.197Z,99.90
2022-09-29T18:42:26.889Z,99.90
2022-09-29T18:45:31.054Z,99.90
2022-09-29T18:48:32.732Z,99.90
2022-09-29T18:51:34.447Z,99.90
2022-09-29T18:54:36.522Z,99.90
2022-09-29T18:57:38.268Z,99.90
2022-09-29T19:00:46.663Z,99.90
2022-09-29T19:03:48.409Z,99.90
2022-09-29T19:06:50.038Z,99.90
2022-09-29T19:09:51.726Z,99.90
2022-09-29T19:12:58.683Z,99.90
2022-09-29T19:16:00.589Z,99.90
2022-09-29T19:19:04.372Z,99.90
2022-09-29T19:22:06.345Z,99.90
2022-09-29T19:25:16.768Z,99.90
2022-09-29T19:28:20.175Z,99.90
2022-09-29T19:31:22.263Z,99.90
2022-09-29T19:34:24.065Z,99.90
2022-09-29T19:37:26.287Z,99.90
2022-09-29T19:40:31.872Z,99.90
2022-09-29T19:43:33.516Z,99.90
2022-09-29T19:46:35.355Z,99.90
2022-09-29T19:49:37.145Z,99.90
2022-09-29T19:52:38.781Z,99.90
2022-09-29T19:55:40.833Z,99.90
2022-09-29T19:58:42.953Z,99.90
2022-09-29T20:01:45.721Z,99.90
2022-09-29T20:04:47.501Z,99.90
2022-09-29T20:07:49.878Z,99.90
2022-09-29T20:10:51.528Z,99.90
2022-09-29T20:13:53.277Z,99.90
2022-09-29T20:16:57.048Z,99.90
2022-09-29T20:19:58.757Z,99.90
2022-09-29T20:23:02.134Z,99.90
2022-09-29T20:26:03.940Z,99.90
2022-09-29T20:29:05.917Z,99.90
2022-09-29T20:32:08.492Z,99.90
2022-09-29T20:35:10.130Z,99.90
2022-09-29T20:38:12.051Z,99.90
2022-09-29T20:41:15.680Z,99.90
2022-09-29T20:44:19.762Z,99.90
2022-09-29T20:47:24.673Z,99.90
2022-09-29T20:50:28.113Z,99.90
2022-09-29T20:53:34.644Z,99.90
2022-09-29T20:56:41.403Z,99.90
2022-09-29T20:59:43.722Z,99.90
2022-09-29T21:02:48.076Z,99.90
2022-09-29T21:05:50.865Z,99.90
2022-09-29T21:08:52.614Z,99.90
2022-09-29T21:11:54.979Z,99.90
2022-09-29T21:14:56.622Z,99.90
2022-09-29T21:17:58.385Z,99.90
2022-09-29T21:21:04.834Z,99.90
2022-09-29T21:24:07.537Z,99.90
2022-09-29T21:27:09.319Z,99.90
2022-09-29T21:30:11.209Z,99.90
2022-09-29T21:33:12.868Z,99.90
2022-09-29T21:36:15.669Z,99.90
2022-09-29T21:39:17.507Z,99.90
2022-09-29T21:42:19.335Z,99.90
2022-09-29T21:45:20.976Z,99.90
2022-09-29T21:48:22.653Z,99.90
2022-09-29T21:51:31.767Z,99.90
2022-09-29T21:54:37.531Z,99.90
2022-09-29T21:57:39.312Z,99.90
2022-09-29T22:00:40.944Z,99.90
2022-09-29T22:03:45.328Z,99.90
2022-09-29T22:06:47.307Z,99.90
2022-09-29T22:09:49.602Z,99.90
2022-09-29T22:12:51.240Z,99.90
2022-09-29T22:15:54.554Z,99.90
2022-09-29T22:19:21.520Z,99.90
2022-09-29T22:22:20.706Z,99.90
2022-09-29T22:25:22.354Z,99.90
2022-09-29T22:28:25.257Z,99.90
2022-09-29T22:31:28.097Z,99.90
2022-09-29T22:34:29.895Z,99.90
2022-09-29T22:37:31.597Z,99.90
2022-09-29T22:40:33.795Z,99.90
2022-09-29T22:43:35.479Z,99.90
2022-09-29T22:46:37.174Z,99.90
2022-09-29T22:49:38.867Z,99.90
2022-09-29T22:52:40.501Z,99.90
2022-09-29T22:55:42.537Z,99.90
2022-09-29T22:58:44.781Z,99.90
2022-09-29T23:01:47.263Z,99.90
2022-09-29T23:04:49.206Z,99.90
2022-09-29T23:07:51.071Z,99.90
2022-09-29T23:10:55.964Z,99.90
2022-09-29T23:13:57.623Z,99.90
2022-09-29T23:16:59.283Z,99.90
2022-09-29T23:20:01.107Z,99.90
2022-09-29T23:23:02.749Z,99.90
2022-09-29T23:26:04.748Z,99.90
2022-09-29T23:29:07.769Z,99.90
2022-09-29T23:32:09.910Z,99.90
2022-09-29T23:35:11.590Z,99.90
2022-09-29T23:38:31.823Z,99.90
2022-09-29T23:41:34.162Z,99.90
2022-09-29T23:44:40.489Z,99.90
2022-09-29T23:47:42.141Z,99.90
2022-09-29T23:50:44.993Z,99.90
2022-09-29T23:53:46.775Z,99.90
2022-09-29T23:56:50.059Z,99.90
2022-09-29T23:59:51.703Z,99.90
